sensor_id;sensor_type;location;lat;lon;timestamp;temperature;humidity
52743;DHT22;55583;53.012;6.556;2023-07-13T00:00:28;15.30;99.90
52743;DHT22;55583;53.012;6.556;2023-07-13T00:02:54;15.30;99.90
52743;DHT22;55583;53.012;6.556;2023-07-13T00:05:23;15.30;99.90
52743;DHT22;55583;53.012;6.556;2023-07-13T00:07:50;15.30;99.90
52743;DHT22;55583;53.012;6.556;2023-07-13T00:10:16;15.30;99.90
52743;DHT22;55583;53.012;6.556;2023-07-13T00:12:42;15.30;99.90
52743;DHT22;55583;53.012;6.556;2023-07-13T00:15:15;15.40;99.90
52743;DHT22;55583;53.012;6.556;2023-07-13T00:17:42;15.30;99.90
52743;DHT22;55583;53.012;6.556;2023-07-13T00:20:10;15.30;99.90
52743;DHT22;55583;53.012;6.556;2023-07-13T00:22:37;15.30;99.90
52743;DHT22;55583;53.012;6.556;2023-07-13T00:25:03;15.40;99.90
52743;DHT22;55583;53.012;6.556;2023-07-13T00:27:29;15.50;99.90
52743;DHT22;55583;53.012;6.556;2023-07-13T00:29:58;15.50;99.90
52743;DHT22;55583;53.012;6.556;2023-07-13T00:32:24;15.60;99.90
52743;DHT22;55583;53.012;6.556;2023-07-13T00:34:53;15.60;99.90
52743;DHT22;55583;53.012;6.556;2023-07-13T00:37:18;15.60;99.90
52743;DHT22;55583;53.012;6.556;2023-07-13T00:39:44;15.70;99.90
52743;DHT22;55583;53.012;6.556;2023-07-13T00:42:10;15.70;99.90
52743;DHT22;55583;53.012;6.556;2023-07-13T00:44:36;15.70;99.90
52743;DHT22;55583;53.012;6.556;2023-07-13T00:47:02;15.80;99.90
52743;DHT22;55583;53.012;6.556;2023-07-13T00:49:30;15.80;99.90
52743;DHT22;55583;53.012;6.556;2023-07-13T00:52:02;15.80;99.90
52743;DHT22;55583;53.012;6.556;2023-07-13T00:54:35;15.80;99.90
52743;DHT22;55583;53.012;6.556;2023-07-13T00:57:04;15.90;99.90
52743;DHT22;55583;53.012;6.556;2023-07-13T00:59:31;15.80;99.90
52743;DHT22;55583;53.012;6.556;2023-07-13T01:01:58;15.80;99.90
52743;DHT22;55583;53.012;6.556;2023-07-13T01:04:25;15.90;99.90
52743;DHT22;55583;53.012;6.556;2023-07-13T01:06:51;15.90;99.90
52743;DHT22;55583;53.012;6.556;2023-07-13T01:09:18;15.90;99.90
52743;DHT22;55583;53.012;6.556;2023-07-13T01:11:44;15.90;99.90
52743;DHT22;55583;53.012;6.556;2023-07-13T01:14:10;15.90;99.90
52743;DHT22;55583;53.012;6.556;2023-07-13T01:16:37;15.90;99.90
52743;DHT22;55583;53.012;6.556;2023-07-13T01:19:54;15.80;99.90
52743;DHT22;55583;53.012;6.556;2023-07-13T01:22:02;15.90;99.90
52743;DHT22;55583;53.012;6.556;2023-07-13T01:24:28;15.90;99.90
52743;DHT22;55583;53.012;6.556;2023-07-13T01:26:54;15.90;99.90
52743;DHT22;55583;53.012;6.556;2023-07-13T01:29:21;15.90;99.90
52743;DHT22;55583;53.012;6.556;2023-07-13T01:31:47;15.90;99.90
52743;DHT22;55583;53.012;6.556;2023-07-13T01:34:12;15.90;99.90
52743;DHT22;55583;53.012;6.556;2023-07-13T01:36:38;15.90;99.90
52743;DHT22;55583;53.012;6.556;2023-07-13T01:39:04;15.90;99.90
52743;DHT22;55583;53.012;6.556;2023-07-13T01:41:30;15.90;99.90
52743;DHT22;55583;53.012;6.556;2023-07-13T01:43:56;15.90;99.90
52743;DHT22;55583;53.012;6.556;2023-07-13T01:46:21;15.90;99.90
52743;DHT22;55583;53.012;6.556;2023-07-13T01:48:47;15.90;99.90
52743;DHT22;55583;53.012;6.556;2023-07-13T01:51:13;15.90;99.90
52743;DHT22;55583;53.012;6.556;2023-07-13T01:53:39;15.90;99.90
52743;DHT22;55583;53.012;6.556;2023-07-13T01:56:05;15.90;99.90
52743;DHT22;55583;53.012;6.556;2023-07-13T01:58:30;15.90;99.90
52743;DHT22;55583;53.012;6.556;2023-07-13T02:00:56;15.90;99.90
52743;DHT22;55583;53.012;6.556;2023-07-13T02:03:22;15.90;99.90
52743;DHT22;55583;53.012;6.556;2023-07-13T02:05:47;15.90;99.90
52743;DHT22;55583;53.012;6.556;2023-07-13T02:08:13;15.80;99.90
52743;DHT22;55583;53.012;6.556;2023-07-13T02:10:39;15.80;99.90
52743;DHT22;55583;53.012;6.556;2023-07-13T02:13:06;15.80;99.90
52743;DHT22;55583;53.012;6.556;2023-07-13T02:15:32;15.80;99.90
52743;DHT22;55583;53.012;6.556;2023-07-13T02:17:58;15.70;99.90
52743;DHT22;55583;53.012;6.556;2023-07-13T02:20:24;15.70;99.90
52743;DHT22;55583;53.012;6.556;2023-07-13T02:22:51;15.70;99.90
52743;DHT22;55583;53.012;6.556;2023-07-13T02:25:17;15.60;99.90
52743;DHT22;55583;53.012;6.556;2023-07-13T02:27:43;15.60;99.90
52743;DHT22;55583;53.012;6.556;2023-07-13T02:30:09;15.50;99.90
52743;DHT22;55583;53.012;6.556;2023-07-13T02:32:36;15.50;99.90
52743;DHT22;55583;53.012;6.556;2023-07-13T02:35:02;15.40;99.90
52743;DHT22;55583;53.012;6.556;2023-07-13T02:37:28;15.40;99.90
52743;DHT22;55583;53.012;6.556;2023-07-13T02:39:55;15.40;99.90
52743;DHT22;55583;53.012;6.556;2023-07-13T02:42:21;15.30;99.90
52743;DHT22;55583;53.012;6.556;2023-07-13T02:44:46;15.30;99.90
52743;DHT22;55583;53.012;6.556;2023-07-13T02:47:12;15.30;99.90
52743;DHT22;55583;53.012;6.556;2023-07-13T02:49:38;15.20;99.90
52743;DHT22;55583;53.012;6.556;2023-07-13T02:52:05;15.20;99.90
52743;DHT22;55583;53.012;6.556;2023-07-13T02:54:30;15.10;99.90
52743;DHT22;55583;53.012;6.556;2023-07-13T02:56:56;15.10;99.90
52743;DHT22;55583;53.012;6.556;2023-07-13T02:59:22;15.10;99.90
52743;DHT22;55583;53.012;6.556;2023-07-13T03:01:47;15.10;99.90
52743;DHT22;55583;53.012;6.556;2023-07-13T03:04:13;15.10;99.90
52743;DHT22;55583;53.012;6.556;2023-07-13T03:06:39;15.20;99.90
52743;DHT22;55583;53.012;6.556;2023-07-13T03:09:05;15.10;99.90
52743;DHT22;55583;53.012;6.556;2023-07-13T03:11:30;15.20;99.90
52743;DHT22;55583;53.012;6.556;2023-07-13T03:13:57;15.20;99.90
52743;DHT22;55583;53.012;6.556;2023-07-13T03:16:23;15.10;99.90
52743;DHT22;55583;53.012;6.556;2023-07-13T03:18:49;15.10;99.90
52743;DHT22;55583;53.012;6.556;2023-07-13T03:21:15;15.00;99.90
52743;DHT22;55583;53.012;6.556;2023-07-13T03:23:40;15.00;99.90
52743;DHT22;55583;53.012;6.556;2023-07-13T03:26:18;14.90;99.90
52743;DHT22;55583;53.012;6.556;2023-07-13T03:28:44;14.90;99.90
52743;DHT22;55583;53.012;6.556;2023-07-13T03:31:13;14.90;99.90
52743;DHT22;55583;53.012;6.556;2023-07-13T03:33:39;15.00;99.90
52743;DHT22;55583;53.012;6.556;2023-07-13T03:36:07;15.00;99.90
52743;DHT22;55583;53.012;6.556;2023-07-13T03:38:33;15.00;99.90
52743;DHT22;55583;53.012;6.556;2023-07-13T03:40:59;15.00;99.90
52743;DHT22;55583;53.012;6.556;2023-07-13T03:43:25;15.00;99.90
52743;DHT22;55583;53.012;6.556;2023-07-13T03:45:51;15.00;99.90
52743;DHT22;55583;53.012;6.556;2023-07-13T03:48:17;14.90;99.90
52743;DHT22;55583;53.012;6.556;2023-07-13T03:50:43;14.90;99.90
52743;DHT22;55583;53.012;6.556;2023-07-13T03:53:08;14.90;99.90
52743;DHT22;55583;53.012;6.556;2023-07-13T03:55:34;14.90;99.90
52743;DHT22;55583;53.012;6.556;2023-07-13T03:58:27;14.90;99.90
52743;DHT22;55583;53.012;6.556;2023-07-13T04:00:54;14.90;99.90
52743;DHT22;55583;53.012;6.556;2023-07-13T04:03:20;14.90;99.90
52743;DHT22;55583;53.012;6.556;2023-07-13T04:05:46;14.90;99.90
52743;DHT22;55583;53.012;6.556;2023-07-13T04:08:12;14.90;99.90
52743;DHT22;55583;53.012;6.556;2023-07-13T04:10:38;15.00;99.90
52743;DHT22;55583;53.012;6.556;2023-07-13T04:13:04;15.00;99.90
52743;DHT22;55583;53.012;6.556;2023-07-13T04:15:31;15.00;99.90
52743;DHT22;55583;53.012;6.556;2023-07-13T04:17:57;15.10;99.90
52743;DHT22;55583;53.012;6.556;2023-07-13T04:20:24;15.10;99.90
52743;DHT22;55583;53.012;6.556;2023-07-13T04:22:50;15.20;99.90
52743;DHT22;55583;53.012;6.556;2023-07-13T04:25:15;15.20;99.90
52743;DHT22;55583;53.012;6.556;2023-07-13T04:27:41;15.30;99.90
52743;DHT22;55583;53.012;6.556;2023-07-13T04:30:07;15.30;99.90
52743;DHT22;55583;53.012;6.556;2023-07-13T04:32:33;15.30;99.90
52743;DHT22;55583;53.012;6.556;2023-07-13T04:34:59;15.20;99.90
52743;DHT22;55583;53.012;6.556;2023-07-13T04:37:27;15.20;99.90
52743;DHT22;55583;53.012;6.556;2023-07-13T04:39:54;15.20;99.90
52743;DHT22;55583;53.012;6.556;2023-07-13T04:42:20;15.20;99.90
52743;DHT22;55583;53.012;6.556;2023-07-13T04:44:49;15.30;99.90
52743;DHT22;55583;53.012;6.556;2023-07-13T04:47:15;15.30;99.90
52743;DHT22;55583;53.012;6.556;2023-07-13T04:49:41;15.30;99.90
52743;DHT22;55583;53.012;6.556;2023-07-13T04:52:07;15.30;99.90
52743;DHT22;55583;53.012;6.556;2023-07-13T04:54:36;15.40;99.90
52743;DHT22;55583;53.012;6.556;2023-07-13T04:57:03;15.40;99.90
52743;DHT22;55583;53.012;6.556;2023-07-13T04:59:32;15.50;99.90
52743;DHT22;55583;53.012;6.556;2023-07-13T05:01:58;15.50;99.90
52743;DHT22;55583;53.012;6.556;2023-07-13T05:04:24;15.60;99.90
52743;DHT22;55583;53.012;6.556;2023-07-13T05:06:50;15.60;99.90
52743;DHT22;55583;53.012;6.556;2023-07-13T05:09:16;15.60;99.90
52743;DHT22;55583;53.012;6.556;2023-07-13T05:11:43;15.70;99.90
52743;DHT22;55583;53.012;6.556;2023-07-13T05:14:08;15.70;99.90
52743;DHT22;55583;53.012;6.556;2023-07-13T05:16:35;15.70;99.90
52743;DHT22;55583;53.012;6.556;2023-07-13T05:19:01;15.70;99.90
52743;DHT22;55583;53.012;6.556;2023-07-13T05:21:27;15.80;99.90
52743;DHT22;55583;53.012;6.556;2023-07-13T05:23:53;15.80;99.90
52743;DHT22;55583;53.012;6.556;2023-07-13T05:26:18;15.90;99.90
52743;DHT22;55583;53.012;6.556;2023-07-13T05:28:46;15.90;99.90
52743;DHT22;55583;53.012;6.556;2023-07-13T05:31:12;15.90;99.90
52743;DHT22;55583;53.012;6.556;2023-07-13T05:33:38;16.00;99.90
52743;DHT22;55583;53.012;6.556;2023-07-13T05:36:04;16.00;99.90
52743;DHT22;55583;53.012;6.556;2023-07-13T05:38:30;16.10;99.90
52743;DHT22;55583;53.012;6.556;2023-07-13T05:40:57;16.10;99.90
52743;DHT22;55583;53.012;6.556;2023-07-13T05:43:23;16.20;99.90
52743;DHT22;55583;53.012;6.556;2023-07-13T05:45:48;16.20;99.90
52743;DHT22;55583;53.012;6.556;2023-07-13T05:48:15;16.30;99.90
52743;DHT22;55583;53.012;6.556;2023-07-13T05:50:41;16.30;99.90
52743;DHT22;55583;53.012;6.556;2023-07-13T05:53:07;16.40;99.90
52743;DHT22;55583;53.012;6.556;2023-07-13T05:55:32;16.40;99.90
52743;DHT22;55583;53.012;6.556;2023-07-13T05:58:00;16.50;99.90
52743;DHT22;55583;53.012;6.556;2023-07-13T06:00:26;16.50;99.90
52743;DHT22;55583;53.012;6.556;2023-07-13T06:02:52;16.60;99.90
52743;DHT22;55583;53.012;6.556;2023-07-13T06:05:18;16.80;99.90
52743;DHT22;55583;53.012;6.556;2023-07-13T06:07:44;17.10;99.90
52743;DHT22;55583;53.012;6.556;2023-07-13T06:10:10;17.30;99.90
52743;DHT22;55583;53.012;6.556;2023-07-13T06:12:35;17.50;99.90
52743;DHT22;55583;53.012;6.556;2023-07-13T06:15:01;17.70;99.90
52743;DHT22;55583;53.012;6.556;2023-07-13T06:17:27;17.90;99.90
52743;DHT22;55583;53.012;6.556;2023-07-13T06:19:53;18.20;99.90
52743;DHT22;55583;53.012;6.556;2023-07-13T06:22:19;18.40;99.90
52743;DHT22;55583;53.012;6.556;2023-07-13T06:24:44;18.70;99.90
52743;DHT22;55583;53.012;6.556;2023-07-13T06:27:10;18.80;99.90
52743;DHT22;55583;53.012;6.556;2023-07-13T06:29:36;19.00;99.90
52743;DHT22;55583;53.012;6.556;2023-07-13T06:32:01;19.20;99.90
52743;DHT22;55583;53.012;6.556;2023-07-13T06:34:27;19.40;99.90
52743;DHT22;55583;53.012;6.556;2023-07-13T06:36:53;19.40;99.90
52743;DHT22;55583;53.012;6.556;2023-07-13T06:39:19;19.50;99.90
52743;DHT22;55583;53.012;6.556;2023-07-13T06:41:44;19.70;99.90
52743;DHT22;55583;53.012;6.556;2023-07-13T06:44:10;19.80;99.90
52743;DHT22;55583;53.012;6.556;2023-07-13T06:46:36;19.90;99.90
52743;DHT22;55583;53.012;6.556;2023-07-13T06:49:01;20.10;99.90
52743;DHT22;55583;53.012;6.556;2023-07-13T06:51:27;20.30;99.90
52743;DHT22;55583;53.012;6.556;2023-07-13T06:53:53;20.40;99.90
52743;DHT22;55583;53.012;6.556;2023-07-13T06:56:19;20.30;99.90
52743;DHT22;55583;53.012;6.556;2023-07-13T06:58:45;20.30;99.90
52743;DHT22;55583;53.012;6.556;2023-07-13T07:01:11;20.10;99.90
52743;DHT22;55583;53.012;6.556;2023-07-13T07:03:36;20.20;99.90
52743;DHT22;55583;53.012;6.556;2023-07-13T07:06:20;20.20;99.90
52743;DHT22;55583;53.012;6.556;2023-07-13T07:08:47;20.40;99.90
52743;DHT22;55583;53.012;6.556;2023-07-13T07:11:16;20.60;99.90
52743;DHT22;55583;53.012;6.556;2023-07-13T07:13:42;20.80;99.90
52743;DHT22;55583;53.012;6.556;2023-07-13T07:16:07;20.90;99.90
52743;DHT22;55583;53.012;6.556;2023-07-13T07:18:34;20.90;99.90
52743;DHT22;55583;53.012;6.556;2023-07-13T07:21:00;21.00;99.90
52743;DHT22;55583;53.012;6.556;2023-07-13T07:23:26;21.00;99.90
52743;DHT22;55583;53.012;6.556;2023-07-13T07:25:52;20.80;99.90
52743;DHT22;55583;53.012;6.556;2023-07-13T07:28:18;20.80;99.90
52743;DHT22;55583;53.012;6.556;2023-07-13T07:30:47;20.90;99.90
52743;DHT22;55583;53.012;6.556;2023-07-13T07:33:13;21.00;99.90
52743;DHT22;55583;53.012;6.556;2023-07-13T07:35:39;21.10;99.90
52743;DHT22;55583;53.012;6.556;2023-07-13T07:38:05;21.00;99.90
52743;DHT22;55583;53.012;6.556;2023-07-13T07:40:31;20.90;99.90
52743;DHT22;55583;53.012;6.556;2023-07-13T07:42:57;20.80;99.90
52743;DHT22;55583;53.012;6.556;2023-07-13T07:45:23;20.70;99.90
52743;DHT22;55583;53.012;6.556;2023-07-13T07:47:49;20.60;99.90
52743;DHT22;55583;53.012;6.556;2023-07-13T07:50:15;20.40;99.90
52743;DHT22;55583;53.012;6.556;2023-07-13T07:52:41;20.10;99.90
52743;DHT22;55583;53.012;6.556;2023-07-13T07:55:08;19.90;99.90
52743;DHT22;55583;53.012;6.556;2023-07-13T07:57:35;19.70;99.90
52743;DHT22;55583;53.012;6.556;2023-07-13T08:00:00;19.60;99.90
52743;DHT22;55583;53.012;6.556;2023-07-13T08:02:26;19.50;99.90
52743;DHT22;55583;53.012;6.556;2023-07-13T08:04:52;19.40;99.90
52743;DHT22;55583;53.012;6.556;2023-07-13T08:07:18;19.40;99.90
52743;DHT22;55583;53.012;6.556;2023-07-13T08:09:44;19.40;99.90
52743;DHT22;55583;53.012;6.556;2023-07-13T08:12:09;19.50;99.90
52743;DHT22;55583;53.012;6.556;2023-07-13T08:14:35;19.70;99.90
52743;DHT22;55583;53.012;6.556;2023-07-13T08:17:01;19.80;99.90
52743;DHT22;55583;53.012;6.556;2023-07-13T08:19:26;19.80;99.90
52743;DHT22;55583;53.012;6.556;2023-07-13T08:21:52;19.70;99.90
52743;DHT22;55583;53.012;6.556;2023-07-13T08:24:18;19.60;99.90
52743;DHT22;55583;53.012;6.556;2023-07-13T08:26:45;19.50;99.90
52743;DHT22;55583;53.012;6.556;2023-07-13T08:29:11;19.40;99.90
52743;DHT22;55583;53.012;6.556;2023-07-13T08:31:37;19.30;99.90
52743;DHT22;55583;53.012;6.556;2023-07-13T08:34:03;19.30;99.90
52743;DHT22;55583;53.012;6.556;2023-07-13T08:36:29;19.20;99.90
52743;DHT22;55583;53.012;6.556;2023-07-13T08:38:55;19.00;99.90
52743;DHT22;55583;53.012;6.556;2023-07-13T08:41:21;18.80;99.90
52743;DHT22;55583;53.012;6.556;2023-07-13T08:43:56;18.70;99.90
52743;DHT22;55583;53.012;6.556;2023-07-13T08:46:24;18.70;99.90
52743;DHT22;55583;53.012;6.556;2023-07-13T08:48:52;18.20;99.90
52743;DHT22;55583;53.012;6.556;2023-07-13T08:54:28;17.20;99.90
52743;DHT22;55583;53.012;6.556;2023-07-13T08:56:57;16.80;99.90
52743;DHT22;55583;53.012;6.556;2023-07-13T08:59:27;16.50;99.90
52743;DHT22;55583;53.012;6.556;2023-07-13T09:02:19;16.40;99.90
52743;DHT22;55583;53.012;6.556;2023-07-13T09:05:01;16.20;99.90
52743;DHT22;55583;53.012;6.556;2023-07-13T09:10:37;16.00;99.90
52743;DHT22;55583;53.012;6.556;2023-07-13T09:15:53;16.70;99.90
52743;DHT22;55583;53.012;6.556;2023-07-13T09:18:23;17.20;99.90
52743;DHT22;55583;53.012;6.556;2023-07-13T09:23:38;17.80;99.90
52743;DHT22;55583;53.012;6.556;2023-07-13T09:26:17;18.20;99.90
52743;DHT22;55583;53.012;6.556;2023-07-13T09:28:48;18.40;99.90
52743;DHT22;55583;53.012;6.556;2023-07-13T09:32:00;18.40;99.90
52743;DHT22;55583;53.012;6.556;2023-07-13T09:34:10;18.60;99.90
52743;DHT22;55583;53.012;6.556;2023-07-13T09:36:36;19.20;99.90
52743;DHT22;55583;53.012;6.556;2023-07-13T09:44:17;18.80;99.90
52743;DHT22;55583;53.012;6.556;2023-07-13T09:46:54;19.00;99.90
52743;DHT22;55583;53.012;6.556;2023-07-13T09:49:28;20.20;99.90
52743;DHT22;55583;53.012;6.556;2023-07-13T09:52:07;21.60;99.90
52743;DHT22;55583;53.012;6.556;2023-07-13T09:54:36;22.20;99.90
52743;DHT22;55583;53.012;6.556;2023-07-13T09:57:11;22.30;99.90
52743;DHT22;55583;53.012;6.556;2023-07-13T09:59:41;22.40;99.90
52743;DHT22;55583;53.012;6.556;2023-07-13T10:04:58;24.00;99.90
52743;DHT22;55583;53.012;6.556;2023-07-13T10:07:25;24.30;99.90
52743;DHT22;55583;53.012;6.556;2023-07-13T10:09:55;23.80;99.90
52743;DHT22;55583;53.012;6.556;2023-07-13T10:12:22;23.20;99.90
52743;DHT22;55583;53.012;6.556;2023-07-13T10:14:52;22.60;99.90
52743;DHT22;55583;53.012;6.556;2023-07-13T10:17:29;22.10;99.90
52743;DHT22;55583;53.012;6.556;2023-07-13T10:19:59;21.50;99.90
52743;DHT22;55583;53.012;6.556;2023-07-13T10:25:19;20.20;99.90
52743;DHT22;55583;53.012;6.556;2023-07-13T10:27:46;19.60;99.90
52743;DHT22;55583;53.012;6.556;2023-07-13T10:30:21;19.00;99.90
52743;DHT22;55583;53.012;6.556;2023-07-13T10:32:51;18.80;99.90
52743;DHT22;55583;53.012;6.556;2023-07-13T10:35:20;18.60;99.90
52743;DHT22;55583;53.012;6.556;2023-07-13T10:37:57;18.50;99.90
52743;DHT22;55583;53.012;6.556;2023-07-13T10:40:39;18.30;99.90
52743;DHT22;55583;53.012;6.556;2023-07-13T10:43:28;18.20;99.90
52743;DHT22;55583;53.012;6.556;2023-07-13T10:45:56;18.10;99.90
52743;DHT22;55583;53.012;6.556;2023-07-13T10:48:23;18.80;99.90
52743;DHT22;55583;53.012;6.556;2023-07-13T10:50:51;19.90;99.90
52743;DHT22;55583;53.012;6.556;2023-07-13T10:53:21;20.60;99.90
52743;DHT22;55583;53.012;6.556;2023-07-13T11:01:06;21.20;99.90
52743;DHT22;55583;53.012;6.556;2023-07-13T11:03:35;21.00;99.90
52743;DHT22;55583;53.012;6.556;2023-07-13T11:08:37;22.80;99.90
52743;DHT22;55583;53.012;6.556;2023-07-13T11:18:51;25.80;99.90
52743;DHT22;55583;53.012;6.556;2023-07-13T11:21:22;26.40;98.80
52743;DHT22;55583;53.012;6.556;2023-07-13T11:24:14;27.00;95.00
52743;DHT22;55583;53.012;6.556;2023-07-13T11:26:51;27.20;74.50
52743;DHT22;55583;53.012;6.556;2023-07-13T11:31:55;26.30;84.00
52743;DHT22;55583;53.012;6.556;2023-07-13T11:34:46;25.40;80.00
52743;DHT22;55583;53.012;6.556;2023-07-13T11:37:15;25.60;73.60
52743;DHT22;55583;53.012;6.556;2023-07-13T11:39:44;26.50;78.20
52743;DHT22;55583;53.012;6.556;2023-07-13T11:42:17;27.40;80.90
52743;DHT22;55583;53.012;6.556;2023-07-13T11:44:49;28.20;73.70
52743;DHT22;55583;53.012;6.556;2023-07-13T11:47:18;28.60;71.30
52743;DHT22;55583;53.012;6.556;2023-07-13T11:49:52;29.10;66.10
52743;DHT22;55583;53.012;6.556;2023-07-13T11:52:23;29.20;59.20
52743;DHT22;55583;53.012;6.556;2023-07-13T11:54:55;29.10;59.70
52743;DHT22;55583;53.012;6.556;2023-07-13T11:57:30;29.10;62.60
52743;DHT22;55583;53.012;6.556;2023-07-13T12:00:01;29.40;57.60
52743;DHT22;55583;53.012;6.556;2023-07-13T12:02:36;29.40;64.60
52743;DHT22;55583;53.012;6.556;2023-07-13T12:05:05;29.50;59.60
52743;DHT22;55583;53.012;6.556;2023-07-13T12:07:33;30.00;64.70
52743;DHT22;55583;53.012;6.556;2023-07-13T12:10:21;29.90;62.00
52743;DHT22;55583;53.012;6.556;2023-07-13T12:12:58;30.10;55.70
52743;DHT22;55583;53.012;6.556;2023-07-13T12:15:37;30.70;57.70
52743;DHT22;55583;53.012;6.556;2023-07-13T12:18:08;31.40;52.90
52743;DHT22;55583;53.012;6.556;2023-07-13T12:20:38;30.80;61.20
52743;DHT22;55583;53.012;6.556;2023-07-13T12:23:28;29.40;58.80
52743;DHT22;55583;53.012;6.556;2023-07-13T12:25:55;28.50;54.60
52743;DHT22;55583;53.012;6.556;2023-07-13T12:28:33;28.00;63.60
52743;DHT22;55583;53.012;6.556;2023-07-13T12:31:03;27.90;55.10
52743;DHT22;55583;53.012;6.556;2023-07-13T12:33:30;28.10;62.20
52743;DHT22;55583;53.012;6.556;2023-07-13T12:35:59;28.30;60.00
52743;DHT22;55583;53.012;6.556;2023-07-13T12:38:25;28.70;61.10
52743;DHT22;55583;53.012;6.556;2023-07-13T12:40:52;29.30;62.50
52743;DHT22;55583;53.012;6.556;2023-07-13T12:43:21;29.60;58.50
52743;DHT22;55583;53.012;6.556;2023-07-13T12:46:03;29.70;58.50
52743;DHT22;55583;53.012;6.556;2023-07-13T12:48:29;29.60;52.00
52743;DHT22;55583;53.012;6.556;2023-07-13T12:50:56;29.40;58.80
52743;DHT22;55583;53.012;6.556;2023-07-13T12:53:29;29.30;60.30
52743;DHT22;55583;53.012;6.556;2023-07-13T12:56:02;29.30;57.70
52743;DHT22;55583;53.012;6.556;2023-07-13T12:58:36;29.50;57.10
52743;DHT22;55583;53.012;6.556;2023-07-13T13:01:04;29.50;56.80
52743;DHT22;55583;53.012;6.556;2023-07-13T13:03:35;29.10;58.80
52743;DHT22;55583;53.012;6.556;2023-07-13T13:08:46;28.00;59.30
52743;DHT22;55583;53.012;6.556;2023-07-13T13:11:14;28.00;61.20
52743;DHT22;55583;53.012;6.556;2023-07-13T13:13:42;28.20;59.90
52743;DHT22;55583;53.012;6.556;2023-07-13T13:18:42;28.30;53.60
52743;DHT22;55583;53.012;6.556;2023-07-13T13:21:09;27.60;59.40
52743;DHT22;55583;53.012;6.556;2023-07-13T13:23:35;27.40;60.10
52743;DHT22;55583;53.012;6.556;2023-07-13T13:26:01;27.70;61.00
52743;DHT22;55583;53.012;6.556;2023-07-13T13:28:28;27.70;60.20
52743;DHT22;55583;53.012;6.556;2023-07-13T13:30:54;27.70;61.00
52743;DHT22;55583;53.012;6.556;2023-07-13T13:33:21;28.20;62.00
52743;DHT22;55583;53.012;6.556;2023-07-13T13:35:47;28.50;60.20
52743;DHT22;55583;53.012;6.556;2023-07-13T13:38:25;28.10;60.10
52743;DHT22;55583;53.012;6.556;2023-07-13T13:40:51;27.60;55.00
52743;DHT22;55583;53.012;6.556;2023-07-13T13:43:25;27.50;61.30
52743;DHT22;55583;53.012;6.556;2023-07-13T13:45:53;27.90;57.00
52743;DHT22;55583;53.012;6.556;2023-07-13T13:48:31;27.80;58.30
52743;DHT22;55583;53.012;6.556;2023-07-13T13:50:58;27.80;56.40
52743;DHT22;55583;53.012;6.556;2023-07-13T13:53:25;27.60;57.90
52743;DHT22;55583;53.012;6.556;2023-07-13T13:55:51;27.60;58.10
52743;DHT22;55583;53.012;6.556;2023-07-13T13:58:18;28.00;59.10
52743;DHT22;55583;53.012;6.556;2023-07-13T14:00:45;28.50;57.80
52743;DHT22;55583;53.012;6.556;2023-07-13T14:03:17;28.50;56.00
52743;DHT22;55583;53.012;6.556;2023-07-13T14:05:44;28.90;56.70
52743;DHT22;55583;53.012;6.556;2023-07-13T14:08:14;29.20;56.60
52743;DHT22;55583;53.012;6.556;2023-07-13T14:10:40;29.40;54.90
52743;DHT22;55583;53.012;6.556;2023-07-13T14:13:16;29.60;56.70
52743;DHT22;55583;53.012;6.556;2023-07-13T14:15:43;30.10;53.60
52743;DHT22;55583;53.012;6.556;2023-07-13T14:18:09;30.30;54.80
52743;DHT22;55583;53.012;6.556;2023-07-13T14:20:34;30.20;55.00
52743;DHT22;55583;53.012;6.556;2023-07-13T14:23:00;29.90;54.50
52743;DHT22;55583;53.012;6.556;2023-07-13T14:25:26;29.00;53.70
52743;DHT22;55583;53.012;6.556;2023-07-13T14:27:55;28.40;54.60
52743;DHT22;55583;53.012;6.556;2023-07-13T14:30:22;28.10;54.70
52743;DHT22;55583;53.012;6.556;2023-07-13T14:32:48;27.50;55.00
52743;DHT22;55583;53.012;6.556;2023-07-13T14:35:22;27.00;56.40
52743;DHT22;55583;53.012;6.556;2023-07-13T14:37:49;26.80;56.10
52743;DHT22;55583;53.012;6.556;2023-07-13T14:40:17;26.80;58.00
52743;DHT22;55583;53.012;6.556;2023-07-13T14:42:43;27.00;57.80
52743;DHT22;55583;53.012;6.556;2023-07-13T14:45:17;27.00;57.40
52743;DHT22;55583;53.012;6.556;2023-07-13T14:47:43;27.20;53.80
52743;DHT22;55583;53.012;6.556;2023-07-13T14:50:24;27.30;56.20
52743;DHT22;55583;53.012;6.556;2023-07-13T14:52:52;27.40;54.60
52743;DHT22;55583;53.012;6.556;2023-07-13T14:55:18;27.70;56.70
52743;DHT22;55583;53.012;6.556;2023-07-13T14:57:45;27.80;56.80
52743;DHT22;55583;53.012;6.556;2023-07-13T15:00:19;27.80;56.30
52743;DHT22;55583;53.012;6.556;2023-07-13T15:02:51;27.80;54.20
52743;DHT22;55583;53.012;6.556;2023-07-13T15:05:24;27.90;54.80
52743;DHT22;55583;53.012;6.556;2023-07-13T15:07:51;28.10;54.40
52743;DHT22;55583;53.012;6.556;2023-07-13T15:10:24;27.70;54.90
52743;DHT22;55583;53.012;6.556;2023-07-13T15:13:01;27.20;54.30
52743;DHT22;55583;53.012;6.556;2023-07-13T15:15:31;26.80;54.80
52743;DHT22;55583;53.012;6.556;2023-07-13T15:17:59;26.70;56.60
52743;DHT22;55583;53.012;6.556;2023-07-13T15:20:31;27.00;55.80
52743;DHT22;55583;53.012;6.556;2023-07-13T15:22:57;27.20;55.30
52743;DHT22;55583;53.012;6.556;2023-07-13T15:25:26;27.10;55.50
52743;DHT22;55583;53.012;6.556;2023-07-13T15:27:54;26.60;55.90
52743;DHT22;55583;53.012;6.556;2023-07-13T15:30:21;26.10;56.40
52743;DHT22;55583;53.012;6.556;2023-07-13T15:32:47;25.80;58.40
52743;DHT22;55583;53.012;6.556;2023-07-13T15:35:19;25.60;58.50
52743;DHT22;55583;53.012;6.556;2023-07-13T15:37:46;25.40;58.40
52743;DHT22;55583;53.012;6.556;2023-07-13T15:40:13;25.00;59.30
52743;DHT22;55583;53.012;6.556;2023-07-13T15:42:40;24.60;59.20
52743;DHT22;55583;53.012;6.556;2023-07-13T15:45:21;24.30;60.20
52743;DHT22;55583;53.012;6.556;2023-07-13T15:47:48;24.10;61.30
52743;DHT22;55583;53.012;6.556;2023-07-13T15:50:22;24.00;61.00
52743;DHT22;55583;53.012;6.556;2023-07-13T15:52:51;23.80;61.30
52743;DHT22;55583;53.012;6.556;2023-07-13T15:55:17;23.80;61.60
52743;DHT22;55583;53.012;6.556;2023-07-13T15:57:47;23.70;61.60
52743;DHT22;55583;53.012;6.556;2023-07-13T16:02:47;23.70;62.10
52743;DHT22;55583;53.012;6.556;2023-07-13T16:05:13;23.70;61.90
52743;DHT22;55583;53.012;6.556;2023-07-13T16:07:43;23.70;62.50
52743;DHT22;55583;53.012;6.556;2023-07-13T16:10:14;23.70;62.80
52743;DHT22;55583;53.012;6.556;2023-07-13T16:12:41;23.70;62.70
52743;DHT22;55583;53.012;6.556;2023-07-13T16:15:16;23.60;62.80
52743;DHT22;55583;53.012;6.556;2023-07-13T16:17:44;23.50;63.20
52743;DHT22;55583;53.012;6.556;2023-07-13T16:20:11;23.40;63.60
52743;DHT22;55583;53.012;6.556;2023-07-13T16:22:41;23.40;63.60
52743;DHT22;55583;53.012;6.556;2023-07-13T16:25:17;23.30;63.00